Time;durP1;ratioP1;P1;durP2;ratioP2;P2;SDS_P1;SDS_P2;PMS_P1;PMS_P2;Temp;Humidity;BMP_temperature;BMP_pressure;BME280_temperature;BME280_humidity;BME280_pressure;Samples;Min_cycle;Max_cycle;Signal;HPM_P1;HPM_P2
2021/05/29 00:01:09;;;;;;;2.83;2.50;;;13.40;66.60;;;;;;4992318;28;20022;-94
2021/05/29 00:03:34;;;;;;;2.38;2.17;;;13.30;66.80;;;;;;5016340;28;20025;-94
2021/05/29 00:06:01;;;;;;;2.55;2.15;;;13.20;66.90;;;;;;5016320;28;20018;-94
2021/05/29 00:08:27;;;;;;;3.13;2.28;;;13.20;67.20;;;;;;5033081;28;20038;-95
2021/05/29 00:10:55;;;;;;;3.92;2.58;;;13.20;67.30;;;;;;5001858;28;20032;-94
2021/05/29 00:13:23;;;;;;;3.40;2.58;;;13.20;67.70;;;;;;5014124;28;20094;-95
2021/05/29 00:15:49;;;;;;;3.10;2.80;;;13.20;67.50;;;;;;5008678;28;20021;-94
2021/05/29 00:18:15;;;;;;;5.00;2.00;;;13.20;67.80;;;;;;5024005;28;20112;-93
2021/05/29 00:20:40;;;;;;;4.07;2.88;;;13.20;67.70;;;;;;5028441;28;20025;-95
2021/05/29 00:23:08;;;;;;;2.95;2.20;;;13.10;68.00;;;;;;5016051;28;20099;-94
2021/05/29 00:25:34;;;;;;;3.45;2.80;;;13.10;67.90;;;;;;5009760;28;20014;-92
2021/05/29 00:27:59;;;;;;;4.88;3.03;;;13.00;68.40;;;;;;5013023;28;20033;-95
2021/05/29 00:30:26;;;;;;;5.53;3.67;;;13.00;68.50;;;;;;5013825;28;20034;-93
2021/05/29 00:32:51;;;;;;;4.72;3.05;;;12.90;69.40;;;;;;4995774;28;20087;-91
2021/05/29 00:35:17;;;;;;;5.55;3.25;;;12.90;69.20;;;;;;4998532;28;20041;-91
2021/05/29 00:37:44;;;;;;;3.10;2.60;;;12.90;69.10;;;;;;5032661;28;20025;-92
2021/05/29 00:40:11;;;;;;;4.97;3.25;;;12.90;69.10;;;;;;5007646;28;20065;-91
2021/05/29 00:42:36;;;;;;;4.05;3.08;;;12.90;69.40;;;;;;5019739;28;20034;-92
2021/05/29 00:45:03;;;;;;;4.05;2.92;;;12.80;69.40;;;;;;5004421;28;20026;-89
2021/05/29 00:47:29;;;;;;;5.50;3.58;;;12.90;69.40;;;;;;5009686;28;20018;-91
2021/05/29 00:49:57;;;;;;;6.03;4.03;;;12.80;69.70;;;;;;5021498;28;20036;-91
2021/05/29 00:52:23;;;;;;;5.05;3.50;;;12.70;70.50;;;;;;5020901;28;20041;-90
2021/05/29 00:54:49;;;;;;;4.47;3.25;;;12.70;70.60;;;;;;5012574;28;20025;-89
2021/05/29 00:57:15;;;;;;;3.88;2.60;;;12.70;70.50;;;;;;5009676;28;20044;-91
2021/05/29 00:59:42;;;;;;;3.42;2.63;;;12.70;70.40;;;;;;5011506;28;20038;-91
2021/05/29 01:02:10;;;;;;;3.08;2.00;;;12.60;70.50;;;;;;5002660;28;20424;-94
2021/05/29 01:04:36;;;;;;;5.72;3.28;;;12.60;70.30;;;;;;5026560;28;20109;-92
2021/05/29 01:07:10;;;;;;;3.85;3.22;;;12.60;70.30;;;;;;5013452;28;20069;-92
2021/05/29 01:09:39;;;;;;;3.33;2.55;;;12.60;70.30;;;;;;4995310;28;20299;-92
2021/05/29 01:12:07;;;;;;;3.97;2.70;;;12.60;70.10;;;;;;4995730;28;20036;-93
2021/05/29 01:14:33;;;;;;;4.20;3.08;;;12.50;70.20;;;;;;4994906;28;20033;-89
2021/05/29 01:17:02;;;;;;;4.00;2.53;;;12.40;71.00;;;;;;4990410;28;20030;-89
2021/05/29 01:19:28;;;;;;;2.95;2.50;;;12.50;70.20;;;;;;5012658;28;20310;-92
2021/05/29 01:21:57;;;;;;;3.22;2.47;;;12.50;70.10;;;;;;5012566;28;20042;-92
2021/05/29 01:24:26;;;;;;;4.32;2.58;;;12.50;69.90;;;;;;5012424;28;20026;-92
2021/05/29 01:26:53;;;;;;;2.70;2.20;;;12.50;69.70;;;;;;5012819;28;20029;-91
2021/05/29 01:29:20;;;;;;;2.30;1.85;;;12.50;69.60;;;;;;5012873;28;20137;-91
2021/05/29 01:31:50;;;;;;;3.78;2.75;;;12.50;69.60;;;;;;5001369;28;20107;-91
2021/05/29 01:34:19;;;;;;;3.70;2.50;;;12.50;69.60;;;;;;5014445;28;20025;-90
2021/05/29 01:36:45;;;;;;;3.00;2.40;;;12.50;70.20;;;;;;5032158;28;20025;-93
2021/05/29 01:39:14;;;;;;;3.67;2.60;;;12.40;69.50;;;;;;5011748;28;20080;-91
2021/05/29 01:41:39;;;;;;;4.15;2.63;;;12.40;70.20;;;;;;5012032;28;20084;-87
2021/05/29 01:44:08;;;;;;;2.67;2.40;;;12.40;69.40;;;;;;5014452;28;20026;-89
2021/05/29 01:46:34;;;;;;;3.53;2.20;;;12.40;69.40;;;;;;5011098;28;20030;-87
2021/05/29 01:48:59;;;;;;;4.40;2.60;;;12.40;69.50;;;;;;5010241;28;20037;-89
2021/05/29 01:51:25;;;;;;;3.60;2.47;;;12.40;69.40;;;;;;5017273;28;20076;-89
2021/05/29 01:53:53;;;;;;;3.10;2.72;;;12.40;69.40;;;;;;5011472;28;20026;-88
2021/05/29 01:56:22;;;;;;;3.63;2.90;;;12.40;69.40;;;;;;5011162;28;20077;-90
2021/05/29 01:58:48;;;;;;;3.70;2.55;;;12.30;69.50;;;;;;5011356;28;20041;-88
2021/05/29 02:01:15;;;;;;;3.67;2.53;;;12.30;69.50;;;;;;4999148;28;20030;-88
2021/05/29 02:03:44;;;;;;;4.68;2.90;;;12.30;69.70;;;;;;5024417;28;20041;-88
2021/05/29 02:06:11;;;;;;;4.03;2.80;;;12.20;69.70;;;;;;4997589;28;20037;-90
2021/05/29 02:08:37;;;;;;;5.22;3.60;;;12.20;69.80;;;;;;5027825;28;20548;-91
2021/05/29 02:11:03;;;;;;;3.60;2.40;;;12.10;70.10;;;;;;5017110;28;20018;-93
2021/05/29 02:13:31;;;;;;;3.97;2.72;;;12.10;70.10;;;;;;5026958;28;20022;-91
2021/05/29 02:15:57;;;;;;;4.15;2.80;;;12.10;70.20;;;;;;4998285;28;20022;-89
2021/05/29 02:18:23;;;;;;;5.85;3.90;;;12.10;70.30;;;;;;5015223;28;20112;-91
2021/05/29 02:21:02;;;;;;;4.60;3.50;;;12.00;70.90;;;;;;5014919;28;20037;-91
2021/05/29 02:23:38;;;;;;;4.50;3.20;;;12.00;71.00;;;;;;4998229;28;20049;-92
2021/05/29 02:26:07;;;;;;;5.07;3.38;;;11.90;71.10;;;;;;5015403;28;20018;-89
2021/05/29 02:28:36;;;;;;;4.60;3.08;;;11.90;71.00;;;;;;4997265;28;20038;-89
2021/05/29 02:31:03;;;;;;;3.65;2.80;;;11.90;71.00;;;;;;5011236;28;20021;-90
2021/05/29 02:33:29;;;;;;;3.80;2.60;;;11.90;70.90;;;;;;5014556;28;20034;-91
2021/05/29 02:35:56;;;;;;;3.78;3.13;;;11.90;70.90;;;;;;5019885;28;20032;-89
2021/05/29 02:38:22;;;;;;;5.68;3.60;;;11.80;71.00;;;;;;4993479;28;20125;-89
2021/05/29 02:40:47;;;;;;;4.25;3.00;;;11.80;71.30;;;;;;4997349;28;21073;-90
2021/05/29 02:43:13;;;;;;;3.70;2.92;;;11.80;71.30;;;;;;5007690;28;20027;-90
2021/05/29 02:45:40;;;;;;;4.55;2.80;;;11.80;71.20;;;;;;4997896;28;20030;-88
2021/05/29 02:48:11;;;;;;;4.90;2.60;;;11.80;71.10;;;;;;5017021;28;20034;-91
2021/05/29 02:50:39;;;;;;;3.00;2.70;;;11.80;71.00;;;;;;5014065;28;20034;-90
2021/05/29 02:53:05;;;;;;;4.40;3.00;;;11.80;71.00;;;;;;5012820;28;20022;-88
2021/05/29 02:55:30;;;;;;;3.97;2.67;;;11.80;71.10;;;;;;5014444;28;20064;-88
2021/05/29 02:57:59;;;;;;;3.03;2.53;;;11.70;71.00;;;;;;5014304;28;20062;-89
2021/05/29 03:00:29;;;;;;;4.40;3.08;;;11.70;71.00;;;;;;5014528;28;20018;-89
2021/05/29 03:02:56;;;;;;;4.50;3.03;;;11.70;71.10;;;;;;5014821;28;20034;-88
2021/05/29 03:05:22;;;;;;;4.82;3.40;;;11.70;71.10;;;;;;5014238;28;20522;-88
2021/05/29 03:07:48;;;;;;;4.93;3.85;;;11.70;71.20;;;;;;5013355;28;20061;-89
2021/05/29 03:10:15;;;;;;;5.00;3.75;;;11.60;71.40;;;;;;4996457;28;20041;-91
2021/05/29 03:12:42;;;;;;;4.18;3.25;;;11.70;71.50;;;;;;5014349;28;20088;-91
2021/05/29 03:15:14;;;;;;;5.35;3.30;;;11.60;71.50;;;;;;4997151;28;20041;-90
2021/05/29 03:17:44;;;;;;;4.70;3.22;;;11.70;71.50;;;;;;5016432;28;20021;-90
2021/05/29 03:20:15;;;;;;;3.35;2.65;;;11.60;71.40;;;;;;5022497;28;20079;-91
2021/05/29 03:22:41;;;;;;;5.57;3.78;;;11.60;71.40;;;;;;4996776;28;20057;-90
2021/05/29 03:25:08;;;;;;;4.28;3.17;;;11.60;72.20;;;;;;5001605;28;20022;-93
2021/05/29 03:27:34;;;;;;;5.07;3.53;;;11.60;71.50;;;;;;5013752;28;20045;-90
2021/05/29 03:30:00;;;;;;;3.70;2.90;;;11.60;71.50;;;;;;5005757;28;20023;-92
2021/05/29 03:32:25;;;;;;;4.45;3.33;;;11.50;71.50;;;;;;5026115;28;20022;-91
2021/05/29 03:34:51;;;;;;;4.85;3.42;;;11.50;71.60;;;;;;5013699;28;20129;-89
2021/05/29 03:37:17;;;;;;;4.15;3.30;;;11.50;71.70;;;;;;5013348;28;20110;-89
2021/05/29 03:39:42;;;;;;;5.95;3.50;;;11.50;71.70;;;;;;5017399;28;20033;-90
2021/05/29 03:42:08;;;;;;;4.72;3.42;;;11.50;71.80;;;;;;4996152;28;20033;-91
2021/05/29 03:44:34;;;;;;;5.25;3.45;;;11.50;71.80;;;;;;5013788;28;20018;-91
2021/05/29 03:47:00;;;;;;;5.57;3.13;;;11.50;71.80;;;;;;5012901;28;20025;-89
2021/05/29 03:49:26;;;;;;;4.90;3.30;;;11.50;71.80;;;;;;5014663;28;20021;-88
2021/05/29 03:51:51;;;;;;;4.38;3.13;;;11.50;71.80;;;;;;5012708;28;20025;-90
2021/05/29 03:54:17;;;;;;;4.28;2.85;;;11.50;71.80;;;;;;5016516;28;20026;-88
2021/05/29 03:56:43;;;;;;;4.15;3.10;;;11.50;71.80;;;;;;5015369;28;20044;-89
2021/05/29 03:59:15;;;;;;;4.85;2.72;;;11.50;71.70;;;;;;5012323;28;20014;-89
2021/05/29 04:01:42;;;;;;;5.32;3.30;;;11.60;71.70;;;;;;4998187;28;20045;-88
2021/05/29 04:04:08;;;;;;;4.03;3.00;;;11.60;71.70;;;;;;5012540;28;20033;-90
2021/05/29 04:06:35;;;;;;;3.58;2.75;;;11.60;71.60;;;;;;5012935;28;20069;-90
2021/05/29 04:09:03;;;;;;;3.65;2.85;;;11.70;71.50;;;;;;5014074;28;20469;-90
2021/05/29 04:11:29;;;;;;;4.00;3.05;;;11.70;71.40;;;;;;4996546;28;20029;-90
2021/05/29 04:13:54;;;;;;;4.65;3.00;;;11.70;71.20;;;;;;5013633;28;20392;-88
2021/05/29 04:16:20;;;;;;;4.18;3.03;;;11.70;71.20;;;;;;4996151;28;20025;-92
2021/05/29 04:18:46;;;;;;;4.57;3.05;;;11.70;71.20;;;;;;5013701;28;20041;-91
2021/05/29 04:21:12;;;;;;;4.82;3.30;;;11.80;71.10;;;;;;5013800;28;20025;-91
2021/05/29 04:23:41;;;;;;;4.25;3.15;;;11.80;71.10;;;;;;5013170;28;20029;-92
2021/05/29 04:26:07;;;;;;;4.95;3.20;;;11.80;71.00;;;;;;5023798;28;20033;-92
2021/05/29 04:28:36;;;;;;;4.25;3.20;;;11.80;71.00;;;;;;4997864;28;20140;-91
2021/05/29 04:31:03;;;;;;;6.90;3.90;;;11.80;71.20;;;;;;5013465;28;20026;-91
2021/05/29 04:33:29;;;;;;;5.68;3.45;;;11.80;71.30;;;;;;5013733;28;20014;-91
2021/05/29 04:35:55;;;;;;;4.70;3.38;;;11.80;71.20;;;;;;4995513;28;20542;-91
2021/05/29 04:38:20;;;;;;;6.68;4.22;;;11.90;71.30;;;;;;4995311;28;20022;-90
2021/05/29 04:40:46;;;;;;;4.47;3.20;;;11.90;71.20;;;;;;5013640;28;20030;-90
2021/05/29 04:43:12;;;;;;;6.22;4.00;;;11.90;71.20;;;;;;4996399;28;20041;-92
2021/05/29 04:45:37;;;;;;;5.07;3.65;;;12.00;71.30;;;;;;5013616;28;20037;-91
2021/05/29 04:48:03;;;;;;;4.97;3.88;;;12.00;71.50;;;;;;5019277;28;20044;-91
2021/05/29 04:50:29;;;;;;;6.10;4.22;;;12.00;71.50;;;;;;4994421;28;20036;-90
2021/05/29 04:52:55;;;;;;;8.23;5.70;;;12.00;71.60;;;;;;5012210;28;20026;-89
2021/05/29 04:55:21;;;;;;;5.97;4.25;;;12.00;72.00;;;;;;4993767;28;20030;-92
2021/05/29 04:57:47;;;;;;;5.63;4.07;;;12.50;72.00;;;;;;5008277;28;20037;-94
2021/05/29 05:00:15;;;;;;;6.05;4.43;;;13.40;69.90;;;;;;5026954;28;20026;-94
2021/05/29 05:02:41;;;;;;;7.82;4.50;;;14.30;67.20;;;;;;5012657;28;20034;-92
2021/05/29 05:05:08;;;;;;;6.90;4.25;;;15.10;64.90;;;;;;5012483;28;20109;-90
2021/05/29 05:07:34;;;;;;;5.53;3.95;;;15.70;62.90;;;;;;5011595;28;20080;-91
2021/05/29 05:10:00;;;;;;;6.47;4.35;;;16.30;61.30;;;;;;4993488;28;20022;-92
2021/05/29 05:12:25;;;;;;;6.40;4.28;;;16.80;60.00;;;;;;5011911;28;20040;-91
2021/05/29 05:14:51;;;;;;;7.38;5.30;;;17.20;59.10;;;;;;5012495;28;20060;-91
2021/05/29 05:17:16;;;;;;;6.10;4.68;;;17.20;58.70;;;;;;5011119;28;20106;-89
2021/05/29 05:19:42;;;;;;;5.78;4.60;;;17.30;58.50;;;;;;5011701;28;20048;-88
2021/05/29 05:22:07;;;;;;;8.98;5.70;;;17.50;58.10;;;;;;4992857;28;20178;-89
2021/05/29 05:24:33;;;;;;;7.70;5.55;;;17.60;57.80;;;;;;5014471;28;20017;-89
2021/05/29 05:26:59;;;;;;;6.60;5.00;;;17.70;57.90;;;;;;4997237;28;20150;-87
2021/05/29 05:29:24;;;;;;;7.85;6.20;;;17.70;57.90;;;;;;5011919;28;20092;-90
2021/05/29 05:31:50;;;;;;;7.00;5.15;;;17.60;58.20;;;;;;5010526;28;20029;-90
2021/05/29 05:34:16;;;;;;;7.55;4.78;;;17.70;58.20;;;;;;4996225;28;20022;-89
2021/05/29 05:36:45;;;;;;;7.45;4.97;;;18.00;57.90;;;;;;4997964;28;20033;-90
2021/05/29 05:39:13;;;;;;;6.85;4.75;;;18.30;57.10;;;;;;5014368;28;20072;-90
2021/05/29 05:41:39;;;;;;;8.38;5.15;;;18.50;56.60;;;;;;4986829;28;20038;-92
2021/05/29 05:44:06;;;;;;;8.35;4.88;;;18.70;56.00;;;;;;5000814;28;20480;-89
2021/05/29 05:46:31;;;;;;;5.07;4.03;;;18.90;55.80;;;;;;5029531;28;20048;-91
2021/05/29 05:48:57;;;;;;;7.45;5.63;;;19.10;55.40;;;;;;4999746;28;20105;-93
2021/05/29 05:51:24;;;;;;;7.07;5.40;;;18.70;55.00;;;;;;4998192;28;20029;-92
2021/05/29 05:53:50;;;;;;;6.60;5.00;;;18.60;55.80;;;;;;4998592;28;20038;-87
2021/05/29 05:56:25;;;;;;;4.93;3.72;;;18.60;56.20;;;;;;5016425;28;20060;-93
2021/05/29 05:58:52;;;;;;;7.55;5.90;;;18.90;55.70;;;;;;4998770;28;20030;-93
2021/05/29 06:01:18;;;;;;;7.97;5.75;;;18.90;55.40;;;;;;4998809;28;20029;-87
2021/05/29 06:03:43;;;;;;;8.00;5.75;;;18.50;55.90;;;;;;5014338;28;20531;-88
2021/05/29 06:06:09;;;;;;;7.65;5.05;;;18.20;56.70;;;;;;5013059;28;20018;-86
2021/05/29 06:08:36;;;;;;;5.78;4.15;;;18.60;57.60;;;;;;4995001;28;20558;-87
2021/05/29 06:11:02;;;;;;;5.10;4.07;;;19.00;56.70;;;;;;5009730;28;20034;-90
2021/05/29 06:21:27;;;;;;;6.45;4.57;;;18.40;56.10;;;;;;5017545;28;20049;-90
2021/05/29 06:23:53;;;;;;;5.15;4.00;;;17.90;57.80;;;;;;5010442;28;20022;-88
2021/05/29 06:26:19;;;;;;;9.85;7.50;;;17.80;58.30;;;;;;5008643;28;20038;-87
2021/05/29 06:28:45;;;;;;;5.72;4.50;;;17.50;58.10;;;;;;5005997;28;20039;-86
2021/05/29 06:31:10;;;;;;;7.60;5.70;;;17.30;59.30;;;;;;4989284;28;20030;-88
2021/05/29 06:33:36;;;;;;;9.65;6.55;;;17.00;59.40;;;;;;5016861;28;20025;-90
2021/05/29 06:36:02;;;;;;;10.23;8.18;;;16.60;59.50;;;;;;4990620;28;20018;-92
2021/05/29 06:38:27;;;;;;;9.23;6.43;;;16.20;60.50;;;;;;5011094;28;20460;-91
2021/05/29 06:40:53;;;;;;;7.68;5.10;;;16.00;61.40;;;;;;5016333;28;20129;-91
2021/05/29 06:43:20;;;;;;;6.63;4.45;;;15.90;62.10;;;;;;5014725;28;20034;-92
2021/05/29 06:45:46;;;;;;;6.82;5.45;;;16.10;62.20;;;;;;4994782;28;20396;-96
2021/05/29 06:48:14;;;;;;;6.82;5.05;;;16.20;61.90;;;;;;5008679;28;20108;-94
2021/05/29 06:50:47;;;;;;;6.40;5.10;;;16.50;61.70;;;;;;5000445;28;20157;-93
2021/05/29 06:53:14;;;;;;;5.22;3.45;;;16.70;61.20;;;;;;4988813;28;20073;-94
2021/05/29 06:58:42;;;;;;;7.07;5.40;;;16.80;59.80;;;;;;5019176;28;20121;-96
2021/05/29 07:01:08;;;;;;;9.73;6.85;;;16.70;60.00;;;;;;5014735;28;20022;-94
2021/05/29 07:03:34;;;;;;;7.43;5.72;;;16.50;60.00;;;;;;4989437;28;20455;-94
2021/05/29 07:05:59;;;;;;;7.75;5.60;;;16.40;60.40;;;;;;5055449;22;20042;-90
2021/05/29 07:08:25;;;;;;;7.45;5.68;;;16.40;60.60;;;;;;4994636;28;20036;-88
2021/05/29 07:13:28;;;;;;;6.80;3.90;;;16.70;60.50;;;;;;5246918;22;20522;-89
2021/05/29 07:15:53;;;;;;;7.53;5.05;;;17.10;60.10;;;;;;5026361;28;20018;-90
2021/05/29 07:18:21;;;;;;;5.97;4.20;;;17.30;59.30;;;;;;5006224;28;20017;-89
2021/05/29 07:20:47;;;;;;;6.38;4.57;;;17.40;59.00;;;;;;5034284;28;20518;-90
2021/05/29 07:23:12;;;;;;;5.88;4.75;;;17.60;58.60;;;;;;5031887;28;20038;-89
2021/05/29 07:25:40;;;;;;;6.15;4.57;;;17.50;57.90;;;;;;5029860;28;20048;-89
2021/05/29 07:28:06;;;;;;;5.75;3.85;;;17.50;58.40;;;;;;5023909;28;20028;-90
2021/05/29 07:30:31;;;;;;;6.78;4.20;;;17.50;58.20;;;;;;5018005;28;20115;-90
2021/05/29 07:32:57;;;;;;;7.75;4.47;;;17.60;58.20;;;;;;5024908;28;20080;-89
2021/05/29 07:35:23;;;;;;;6.13;4.43;;;17.70;57.70;;;;;;5006357;28;20025;-89
2021/05/29 07:37:49;;;;;;;6.70;4.70;;;17.80;57.60;;;;;;4995108;28;20034;-87
2021/05/29 07:40:15;;;;;;;5.13;4.30;;;17.90;57.10;;;;;;5021113;28;20377;-88
2021/05/29 07:42:41;;;;;;;8.25;5.50;;;18.00;57.40;;;;;;5017927;28;20064;-87
2021/05/29 07:45:07;;;;;;;5.75;4.88;;;17.80;56.70;;;;;;4995939;28;20025;-89
2021/05/29 07:47:34;;;;;;;8.23;5.43;;;17.80;57.10;;;;;;5005736;28;20029;-90
2021/05/29 07:50:00;;;;;;;7.50;5.80;;;17.80;57.20;;;;;;5011053;28;20049;-93
2021/05/29 07:52:26;;;;;;;8.45;6.50;;;17.70;56.90;;;;;;5009433;28;20488;-90
2021/05/29 07:54:51;;;;;;;6.80;4.80;;;17.50;57.30;;;;;;5035071;28;20105;-89
2021/05/29 07:57:17;;;;;;;4.53;3.53;;;17.50;58.10;;;;;;5015643;28;20037;-88
2021/05/29 07:59:43;;;;;;;5.47;3.80;;;17.70;57.90;;;;;;5030553;28;20080;-88
2021/05/29 08:02:09;;;;;;;4.78;3.95;;;17.90;57.30;;;;;;5015732;28;20029;-89
2021/05/29 08:04:35;;;;;;;7.05;5.22;;;18.10;57.00;;;;;;5037766;28;20078;-89
2021/05/29 08:07:00;;;;;;;5.35;3.83;;;18.20;56.70;;;;;;5036776;28;20104;-89
2021/05/29 08:09:26;;;;;;;4.20;3.50;;;18.30;56.60;;;;;;5045040;28;20025;-89
2021/05/29 08:11:52;;;;;;;5.03;3.78;;;18.40;56.80;;;;;;5014626;28;20727;-93
2021/05/29 08:14:18;;;;;;;4.20;3.10;;;18.40;56.50;;;;;;5031916;28;20427;-92
2021/05/29 08:16:44;;;;;;;6.53;4.40;;;18.70;56.30;;;;;;5022615;28;20028;-92
2021/05/29 08:19:12;;;;;;;6.13;3.60;;;18.70;54.60;;;;;;5030155;28;20480;-90
2021/05/29 08:21:39;;;;;;;3.78;3.22;;;18.80;55.00;;;;;;5009345;28;20064;-91
2021/05/29 08:24:05;;;;;;;3.47;3.08;;;18.90;54.90;;;;;;5030929;28;20033;-91
2021/05/29 08:26:32;;;;;;;5.65;4.65;;;19.10;54.80;;;;;;5031417;28;20422;-89
2021/05/29 08:29:00;;;;;;;6.45;4.85;;;19.10;54.20;;;;;;5013643;28;20022;-90
2021/05/29 08:31:26;;;;;;;3.95;3.00;;;18.90;54.20;;;;;;5013920;28;20025;-90
2021/05/29 08:33:51;;;;;;;3.55;2.95;;;19.00;54.80;;;;;;5013032;28;20131;-90
2021/05/29 08:36:17;;;;;;;5.53;4.25;;;19.30;54.70;;;;;;5032325;28;20537;-89
2021/05/29 08:38:44;;;;;;;7.13;5.18;;;19.50;53.80;;;;;;5013477;28;20112;-90
2021/05/29 08:41:10;;;;;;;4.15;3.55;;;19.50;53.20;;;;;;5008474;28;20033;-90
2021/05/29 08:43:43;;;;;;;5.57;4.53;;;19.50;53.30;;;;;;5013901;28;20072;-89
2021/05/29 08:46:09;;;;;;;4.43;3.50;;;19.40;52.70;;;;;;5031081;28;20075;-88
2021/05/29 08:48:37;;;;;;;6.00;4.43;;;19.30;53.30;;;;;;5028180;28;20377;-90
2021/05/29 08:51:15;;;;;;;4.43;3.65;;;19.30;53.40;;;;;;5013205;28;20026;-89
2021/05/29 08:53:51;;;;;;;4.75;3.17;;;19.40;53.60;;;;;;5019519;28;20033;-90
2021/05/29 08:56:19;;;;;;;4.40;3.53;;;19.40;53.50;;;;;;5003599;28;20013;-88
2021/05/29 08:58:45;;;;;;;5.38;3.45;;;19.30;53.50;;;;;;5013622;28;20026;-89
2021/05/29 09:01:11;;;;;;;4.07;3.17;;;19.30;53.70;;;;;;5030591;28;20017;-89
2021/05/29 09:03:46;;;;;;;4.80;3.60;;;19.30;53.90;;;;;;5024213;28;20053;-89
2021/05/29 09:06:13;;;;;;;4.35;3.40;;;19.30;53.80;;;;;;5018069;28;20071;-89
2021/05/29 09:08:54;;;;;;;3.63;2.80;;;19.50;53.70;;;;;;5030237;28;20033;-89
2021/05/29 09:11:49;;;;;;;5.32;3.65;;;19.50;53.80;;;;;;5013179;28;20017;-89
2021/05/29 09:14:21;;;;;;;4.30;3.20;;;19.70;53.60;;;;;;5021296;28;20064;-89
2021/05/29 09:17:15;;;;;;;4.43;3.35;;;19.70;53.40;;;;;;5030723;28;20507;-90
2021/05/29 09:20:01;;;;;;;4.28;3.15;;;19.80;53.10;;;;;;5009128;28;20037;-87
2021/05/29 09:22:40;;;;;;;5.05;3.83;;;19.90;53.10;;;;;;5000104;28;20128;-89
2021/05/29 09:25:10;;;;;;;5.65;3.45;;;19.80;52.70;;;;;;5025650;28;20026;-88
2021/05/29 09:27:51;;;;;;;5.15;3.85;;;19.80;52.90;;;;;;5026047;28;20022;-89
2021/05/29 09:30:33;;;;;;;5.45;3.58;;;19.80;52.70;;;;;;5015423;28;20045;-90
2021/05/29 09:33:24;;;;;;;6.35;4.55;;;19.90;53.10;;;;;;5028906;28;20117;-90
2021/05/29 09:36:02;;;;;;;5.25;3.53;;;19.80;52.90;;;;;;5014587;28;20511;-89
2021/05/29 09:38:45;;;;;;;5.43;4.15;;;19.70;53.20;;;;;;5007573;28;20483;-89
2021/05/29 09:41:30;;;;;;;5.18;3.60;;;19.50;53.30;;;;;;5010543;28;20071;-89
2021/05/29 09:44:04;;;;;;;6.60;4.22;;;19.50;53.50;;;;;;5017525;28;20025;-89
2021/05/29 09:46:30;;;;;;;4.65;3.70;;;19.50;53.30;;;;;;4997389;28;20022;-89
2021/05/29 09:48:58;;;;;;;4.53;3.45;;;19.40;53.60;;;;;;5030373;28;20049;-89
2021/05/29 09:51:31;;;;;;;5.32;4.00;;;19.40;53.80;;;;;;5017406;28;20021;-89
2021/05/29 09:54:06;;;;;;;4.97;3.60;;;19.40;53.80;;;;;;5020251;28;20026;-90
2021/05/29 09:56:41;;;;;;;4.88;3.30;;;19.70;53.60;;;;;;5018705;28;20412;-90
2021/05/29 09:59:10;;;;;;;4.78;3.17;;;19.70;52.90;;;;;;5023313;28;20029;-85
2021/05/29 10:01:42;;;;;;;4.43;3.50;;;19.70;52.70;;;;;;5025832;28;20504;-88
2021/05/29 10:04:28;;;;;;;6.43;3.53;;;19.70;52.60;;;;;;5005690;28;20034;-90
2021/05/29 10:07:13;;;;;;;3.35;2.60;;;19.80;52.50;;;;;;5024314;28;20026;-88
2021/05/29 10:09:40;;;;;;;5.30;3.53;;;19.80;52.10;;;;;;5018946;28;20192;-88
2021/05/29 10:12:07;;;;;;;5.32;3.78;;;19.50;52.20;;;;;;5024271;28;20024;-88
2021/05/29 10:14:34;;;;;;;3.83;2.83;;;19.70;52.70;;;;;;5009569;28;20034;-90
2021/05/29 10:17:02;;;;;;;5.22;3.60;;;19.90;52.60;;;;;;5003761;28;20156;-90
2021/05/29 10:19:29;;;;;;;3.97;3.20;;;19.80;52.00;;;;;;5026523;28;20468;-90
2021/05/29 10:21:55;;;;;;;4.53;3.25;;;19.90;52.20;;;;;;5030959;28;20116;-88
2021/05/29 10:24:24;;;;;;;3.55;2.92;;;20.10;51.90;;;;;;4997015;28;20511;-90
2021/05/29 10:26:52;;;;;;;3.75;3.10;;;20.20;51.60;;;;;;5032155;28;20090;-89
2021/05/29 10:29:23;;;;;;;6.60;4.05;;;20.30;50.80;;;;;;5020213;28;20017;-90
2021/05/29 10:31:49;;;;;;;2.95;2.42;;;19.70;50.70;;;;;;5032661;28;20063;-89
2021/05/29 10:34:15;;;;;;;3.28;2.67;;;19.70;51.60;;;;;;5005342;28;20061;-90
2021/05/29 10:36:57;;;;;;;3.90;2.70;;;19.80;51.80;;;;;;5033643;28;20064;-89
2021/05/29 10:39:32;;;;;;;3.13;2.40;;;19.90;51.60;;;;;;5028971;28;20021;-89
2021/05/29 10:42:02;;;;;;;3.70;2.80;;;19.90;51.60;;;;;;5032556;28;20041;-89
2021/05/29 10:44:37;;;;;;;4.10;2.72;;;19.90;51.80;;;;;;5016160;28;20026;-88
2021/05/29 10:47:17;;;;;;;3.40;2.60;;;20.00;51.80;;;;;;5034062;28;20017;-87
2021/05/29 10:49:49;;;;;;;3.92;2.70;;;20.10;51.20;;;;;;5020663;28;20387;-89
2021/05/29 10:52:30;;;;;;;3.75;2.70;;;20.30;50.80;;;;;;5009705;28;20026;-88
2021/05/29 10:55:14;;;;;;;3.42;2.53;;;20.30;50.60;;;;;;5015299;28;20508;-89
2021/05/29 10:58:02;;;;;;;4.53;3.00;;;20.40;50.70;;;;;;5026248;28;20075;-89
2021/05/29 11:00:41;;;;;;;4.30;2.80;;;20.20;49.60;;;;;;5029793;28;20083;-89
2021/05/29 11:03:24;;;;;;;4.97;3.58;;;19.80;50.60;;;;;;5006781;28;20298;-91
2021/05/29 11:05:54;;;;;;;4.88;2.90;;;19.80;51.40;;;;;;5010868;28;20017;-88
2021/05/29 11:08:55;;;;;;;3.95;3.00;;;19.80;51.70;;;;;;5008075;28;20112;-89
2021/05/29 11:14:21;;;;;;;3.67;2.60;;;20.10;51.50;;;;;;5014662;28;20029;-89
2021/05/29 11:16:46;;;;;;;4.15;2.72;;;20.30;50.90;;;;;;5010413;28;20024;-88
2021/05/29 11:19:20;;;;;;;4.25;2.92;;;20.40;50.80;;;;;;5006454;28;20412;-89
2021/05/29 11:22:07;;;;;;;4.43;3.20;;;20.40;50.60;;;;;;5013212;28;20018;-89
2021/05/29 11:24:49;;;;;;;3.55;2.72;;;20.30;50.50;;;;;;4999710;28;20033;-89
2021/05/29 11:27:15;;;;;;;3.28;2.53;;;20.30;50.60;;;;;;5015331;28;20026;-87
2021/05/29 11:30:02;;;;;;;3.35;2.60;;;20.30;50.90;;;;;;5014463;28;20041;-89
2021/05/29 11:35:29;;;;;;;3.17;2.30;;;20.70;50.00;;;;;;5034040;28;20037;-87
2021/05/29 11:38:00;;;;;;;1.90;1.60;;;20.80;49.00;;;;;;5029244;28;20354;-88
2021/05/29 11:40:44;;;;;;;2.60;1.92;;;21.20;49.00;;;;;;5019044;28;20041;-89
2021/05/29 11:43:11;;;;;;;2.55;2.25;;;21.50;48.40;;;;;;4999416;28;20075;-89
2021/05/29 11:45:40;;;;;;;3.65;2.65;;;21.50;48.10;;;;;;5016722;28;20523;-89
2021/05/29 11:48:06;;;;;;;2.60;2.30;;;21.30;48.00;;;;;;5031736;28;20028;-89
2021/05/29 11:50:32;;;;;;;3.60;2.40;;;21.00;48.30;;;;;;5037175;28;20017;-89
2021/05/29 11:52:59;;;;;;;2.28;1.88;;;20.80;48.90;;;;;;5005313;28;20034;-90
2021/05/29 11:55:24;;;;;;;3.30;1.95;;;21.00;49.10;;;;;;5029334;28;20022;-89
2021/05/29 11:58:01;;;;;;;2.75;2.28;;;21.30;48.90;;;;;;5031516;28;20498;-88
2021/05/29 12:00:28;;;;;;;2.50;2.05;;;21.40;47.60;;;;;;5031501;28;20105;-90
2021/05/29 12:02:54;;;;;;;3.65;2.05;;;21.40;47.50;;;;;;5023729;28;20049;-90
2021/05/29 12:05:21;;;;;;;3.20;2.50;;;21.70;47.60;;;;;;5026887;28;20017;-90
2021/05/29 12:08:07;;;;;;;3.65;2.72;;;22.00;47.30;;;;;;5025528;28;20174;-89
2021/05/29 12:10:50;;;;;;;5.15;2.25;;;22.00;46.90;;;;;;5036373;28;20059;-90
2021/05/29 12:13:27;;;;;;;3.33;2.40;;;21.80;47.00;;;;;;5023841;28;20017;-88
2021/05/29 12:15:59;;;;;;;2.63;2.30;;;21.70;46.60;;;;;;5017828;28;20108;-88
2021/05/29 12:18:25;;;;;;;3.28;2.45;;;21.90;46.90;;;;;;5026501;28;20086;-88
2021/05/29 12:20:59;;;;;;;2.47;1.92;;;22.10;46.70;;;;;;5019087;28;20037;-90
2021/05/29 12:23:25;;;;;;;3.10;2.13;;;22.40;46.20;;;;;;5035920;28;20476;-89
2021/05/29 12:25:51;;;;;;;2.28;1.73;;;22.60;45.50;;;;;;5027413;28;20026;-89
2021/05/29 12:28:17;;;;;;;2.30;2.10;;;22.70;45.50;;;;;;5033726;28;20033;-90
2021/05/29 12:30:42;;;;;;;3.70;2.55;;;22.80;45.20;;;;;;5040270;28;20021;-90
2021/05/29 12:33:28;;;;;;;3.08;2.05;;;22.80;45.20;;;;;;5015378;28;20049;-91
2021/05/29 12:36:08;;;;;;;3.55;2.25;;;22.80;45.20;;;;;;5009973;28;20639;-91
2021/05/29 12:38:33;;;;;;;3.85;2.35;;;22.70;44.20;;;;;;5012184;28;20039;-91
2021/05/29 12:41:08;;;;;;;3.00;1.90;;;22.40;44.00;;;;;;5035993;28;20024;-89
2021/05/29 12:43:34;;;;;;;3.13;1.80;;;22.50;45.10;;;;;;5034303;28;20036;-88
2021/05/29 12:46:00;;;;;;;2.25;2.05;;;22.60;45.20;;;;;;5008628;28;20032;-89
2021/05/29 12:48:25;;;;;;;2.90;2.20;;;22.50;45.30;;;;;;5016689;28;20021;-89
2021/05/29 12:53:36;;;;;;;2.50;1.60;;;22.70;44.90;;;;;;5034375;28;20036;-88
2021/05/29 12:56:20;;;;;;;2.08;1.67;;;23.00;44.70;;;;;;5014603;28;20082;-89
2021/05/29 12:59:06;;;;;;;3.25;2.08;;;23.40;44.30;;;;;;5028883;28;20190;-88
2021/05/29 13:09:41;;;;;;;3.70;2.30;;;22.80;44.60;;;;;;5025002;28;20029;-89
2021/05/29 13:12:14;;;;;;;2.95;1.95;;;22.50;44.70;;;;;;5012201;28;20030;-88
2021/05/29 13:14:43;;;;;;;2.15;1.92;;;22.60;44.70;;;;;;5012647;28;20033;-88
2021/05/29 13:17:21;;;;;;;3.22;1.95;;;22.70;44.10;;;;;;5021780;28;20017;-89
2021/05/29 13:19:51;;;;;;;3.28;2.10;;;22.70;44.30;;;;;;5033508;28;20824;-88
2021/05/29 13:22:21;;;;;;;2.33;1.80;;;22.70;44.20;;;;;;5012992;28;20567;-89
2021/05/29 13:24:50;;;;;;;3.72;2.60;;;22.40;44.10;;;;;;5014623;28;20044;-89
2021/05/29 13:27:26;;;;;;;3.63;2.10;;;22.30;44.30;;;;;;5018803;28;20048;-89